createdAt,value
2022-08-03T00:00:35.677Z,98120.47
2022-08-03T00:03:03.362Z,98120.50
2022-08-03T00:05:33.241Z,98116.09
2022-08-03T00:08:01.148Z,98124.59
2022-08-03T00:10:28.566Z,98118.59
2022-08-03T00:12:55.567Z,98123.78
2022-08-03T00:15:22.644Z,98118.84
2022-08-03T00:17:55.890Z,98121.00
2022-08-03T00:20:25.452Z,98121.28
2022-08-03T00:22:55.711Z,98124.28
2022-08-03T00:25:22.900Z,98120.50
2022-08-03T00:27:53.069Z,98121.28
2022-08-03T00:30:23.212Z,98120.75
2022-08-03T00:35:50.235Z,98123.50
2022-08-03T00:38:18.812Z,98129.75
2022-08-03T00:40:51.646Z,98123.78
2022-08-03T00:43:21.353Z,98121.06
2022-08-03T00:45:48.351Z,98122.41
2022-08-03T00:48:27.251Z,98128.13
2022-08-03T00:51:00.888Z,98128.69
2022-08-03T00:53:33.926Z,98114.78
2022-08-03T00:56:06.449Z,98132.44
2022-08-03T00:58:33.571Z,98141.97
2022-08-03T01:01:05.209Z,98141.97
2022-08-03T01:03:34.862Z,98130.50
2022-08-03T01:06:08.520Z,98142.50
2022-08-03T01:08:44.172Z,98126.72
2022-08-03T01:11:17.600Z,98128.06
2022-08-03T01:14:18.179Z,98126.66
2022-08-03T01:17:00.412Z,98126.44
2022-08-03T01:19:49.094Z,98127.25
2022-08-03T01:22:29.227Z,98141.13
2022-08-03T01:25:30.812Z,98140.31
2022-08-03T01:28:22.638Z,98132.41
2022-08-03T01:30:56.880Z,98136.53
2022-08-03T01:33:29.104Z,98134.06
2022-08-03T01:36:05.473Z,98132.16
2022-08-03T01:38:43.104Z,98137.59
2022-08-03T01:41:19.568Z,98145.75
2022-08-03T01:44:27.005Z,98147.94
2022-08-03T01:46:40.698Z,98138.13
2022-08-03T01:49:19.138Z,98140.84
2022-08-03T01:51:58.470Z,98128.31
2022-08-03T01:54:35.354Z,98129.69
2022-08-03T01:57:04.450Z,98124.78
2022-08-03T01:59:36.146Z,98124.53
2022-08-03T02:02:32.117Z,98124.00
2022-08-03T02:05:00.303Z,98129.16
2022-08-03T02:07:30.654Z,98131.63
2022-08-03T02:09:59.945Z,98121.25
2022-08-03T02:12:36.307Z,98115.81
2022-08-03T02:15:04.632Z,98114.72
2022-08-03T02:17:39.693Z,98113.31
2022-08-03T02:20:12.402Z,98116.84
2022-08-03T02:22:45.235Z,98123.13
2022-08-03T02:25:14.457Z,98127.72
2022-08-03T02:27:49.442Z,98115.72
2022-08-03T02:30:18.869Z,98123.88
2022-08-03T02:32:52.687Z,98128.00
2022-08-03T02:36:40.858Z,98118.72
2022-08-03T02:39:11.346Z,98128.78
2022-08-03T02:41:43.632Z,98125.28
2022-08-03T02:44:12.473Z,98120.16
2022-08-03T02:46:43.175Z,98123.94
2022-08-03T02:49:49.562Z,98116.06
2022-08-03T02:51:59.983Z,98124.47
2022-08-03T02:54:28.858Z,98118.50
2022-08-03T02:56:58.657Z,98116.59
2022-08-03T02:59:27.209Z,98115.22
2022-08-03T03:01:55.509Z,98120.63
2022-08-03T03:04:24.201Z,98117.63
2022-08-03T03:06:57.748Z,98126.06
2022-08-03T03:09:25.243Z,98120.84
2022-08-03T03:12:09.988Z,98113.22
2022-08-03T03:14:37.640Z,98126.22
2022-08-03T03:17:06.735Z,98121.31
2022-08-03T03:19:34.438Z,98123.22
2022-08-03T03:22:03.708Z,98115.56
2022-08-03T03:24:31.086Z,98122.66
2022-08-03T03:26:59.054Z,98123.75
2022-08-03T03:29:26.129Z,98122.66
2022-08-03T03:31:53.652Z,98131.38
2022-08-03T03:34:21.153Z,98118.66
2022-08-03T03:36:48.129Z,98122.19
2022-08-03T03:39:15.843Z,98122.22
2022-08-03T03:41:43.502Z,98121.69
2022-08-03T03:44:10.439Z,98115.44
2022-08-03T03:46:39.063Z,98123.38
2022-08-03T03:49:07.636Z,98123.94
2022-08-03T03:51:35.170Z,98128.63
2022-08-03T03:54:04.738Z,98130.84
2022-08-03T03:56:32.062Z,98133.34
2022-08-03T03:58:58.991Z,98126.84
2022-08-03T04:01:25.911Z,98132.03
2022-08-03T04:03:52.722Z,98138.09
2022-08-03T04:06:38.226Z,98147.13
2022-08-03T04:09:23.248Z,98148.25
2022-08-03T04:11:57.776Z,98152.09
2022-08-03T04:14:32.764Z,98151.06
2022-08-03T04:17:03.629Z,98145.13
2022-08-03T04:19:40.533Z,98143.25
2022-08-03T04:22:10.890Z,98148.47
2022-08-03T04:24:44.906Z,98158.84
2022-08-03T04:27:14.308Z,98151.00
2022-08-03T04:29:48.209Z,98148.56
2022-08-03T04:32:17.238Z,98155.94
2022-08-03T04:37:46.534Z,98164.34
2022-08-03T04:40:30.176Z,98169.81
2022-08-03T04:42:58.933Z,98174.41
2022-08-03T04:45:29.966Z,98167.63
2022-08-03T04:48:00.425Z,98171.41
2022-08-03T04:50:30.693Z,98174.59
2022-08-03T04:52:57.711Z,98169.66
2022-08-03T04:58:13.093Z,98171.47
2022-08-03T05:00:39.953Z,98167.03
2022-08-03T05:03:25.135Z,98173.50
2022-08-03T05:06:10.968Z,98175.69
2022-08-03T05:09:08.526Z,98177.59
2022-08-03T05:11:37.914Z,98176.94
2022-08-03T05:14:04.980Z,98188.88
2022-08-03T05:16:32.011Z,98182.03
2022-08-03T05:18:58.665Z,98181.38
2022-08-03T05:21:25.687Z,98185.03
2022-08-03T05:24:08.418Z,98174.41
2022-08-03T05:26:35.293Z,98177.16
2022-08-03T05:29:10.716Z,98187.47
2022-08-03T05:31:37.443Z,98180.63
2022-08-03T05:34:04.276Z,98180.22
2022-08-03T05:36:30.861Z,98179.28
2022-08-03T05:39:02.232Z,98187.59
2022-08-03T05:41:36.966Z,98185.16
2022-08-03T05:44:04.736Z,98197.16
2022-08-03T05:46:31.728Z,98198.75
2022-08-03T05:48:58.351Z,98204.19
2022-08-03T05:51:24.996Z,98202.22
2022-08-03T05:53:51.654Z,98193.69
2022-08-03T05:56:23.706Z,98193.22
2022-08-03T05:58:52.364Z,98189.03
2022-08-03T06:01:22.076Z,98194.38
2022-08-03T06:03:50.345Z,98197.59
2022-08-03T06:06:17.775Z,98204.09
2022-08-03T06:08:45.557Z,98192.69
2022-08-03T06:11:12.870Z,98197.69
2022-08-03T06:13:39.918Z,98209.66
2022-08-03T06:16:06.812Z,98207.72
2022-08-03T06:18:33.553Z,98202.78
2022-08-03T06:21:14.540Z,98204.69
2022-08-03T06:23:53.117Z,98198.16
2022-08-03T06:26:21.691Z,98201.28
2022-08-03T06:28:52.911Z,98205.44
2022-08-03T06:31:24.047Z,98201.97
2022-08-03T06:34:32.195Z,98197.63
2022-08-03T06:38:35.875Z,98209.94
2022-08-03T06:41:02.448Z,98213.63
2022-08-03T06:43:29.166Z,98207.84
2022-08-03T06:46:02.363Z,98204.75
2022-08-03T06:48:29.103Z,98203.63
2022-08-03T06:50:55.668Z,98205.59
2022-08-03T06:53:22.671Z,98198.75
2022-08-03T06:55:54.220Z,98209.09
2022-08-03T06:58:21.365Z,98210.59
2022-08-03T07:00:48.118Z,98203.75
2022-08-03T07:03:15.217Z,98207.69
2022-08-03T07:05:43.581Z,98201.75
2022-08-03T07:08:10.562Z,98205.06
2022-08-03T07:10:37.387Z,98197.19
2022-08-03T07:13:05.027Z,98199.25
2022-08-03T07:15:38.327Z,98199.41
2022-08-03T07:18:24.648Z,98199.81
2022-08-03T07:20:57.486Z,98201.72
2022-08-03T07:23:24.370Z,98202.44
2022-08-03T07:25:51.204Z,98205.16
2022-08-03T07:28:18.086Z,98205.03
2022-08-03T07:30:44.904Z,98197.03
2022-08-03T07:33:11.668Z,98206.31
2022-08-03T07:35:38.800Z,98204.94
2022-08-03T07:38:05.619Z,98209.16
2022-08-03T07:40:32.375Z,98211.31
2022-08-03T07:42:59.706Z,98207.03
2022-08-03T07:45:26.988Z,98213.63
2022-08-03T07:47:54.252Z,98212.66
2022-08-03T07:50:22.013Z,98210.47
2022-08-03T07:52:49.937Z,98209.81
2022-08-03T07:55:18.225Z,98214.56
2022-08-03T07:57:44.813Z,98219.38
2022-08-03T08:00:18.195Z,98211.66
2022-08-03T08:02:46.247Z,98213.75
2022-08-03T08:05:13.242Z,98213.69
2022-08-03T08:07:40.502Z,98209.03
2022-08-03T08:10:10.156Z,98216.16
2022-08-03T08:12:39.000Z,98215.31
2022-08-03T08:15:06.547Z,98203.56
2022-08-03T08:17:42.545Z,98205.59
2022-08-03T08:20:10.920Z,98208.56
2022-08-03T08:22:37.548Z,98206.16
2022-08-03T08:25:07.475Z,98214.31
2022-08-03T08:28:29.975Z,98215.88
2022-08-03T08:30:23.585Z,98212.72
2022-08-03T08:32:51.095Z,98214.09
2022-08-03T08:35:19.082Z,98214.72
2022-08-03T08:39:34.310Z,98216.97
2022-08-03T08:42:01.430Z,98217.88
2022-08-03T08:44:30.067Z,98207.25
2022-08-03T08:46:58.038Z,98209.16
2022-08-03T08:49:28.164Z,98215.28
2022-08-03T08:52:00.820Z,98211.56
2022-08-03T08:54:29.778Z,98203.50
2022-08-03T08:56:59.438Z,98211.56
2022-08-03T08:59:26.548Z,98211.81
2022-08-03T09:02:13.540Z,98214.38
2022-08-03T09:04:40.354Z,98215.44
2022-08-03T09:07:19.576Z,98222.16
2022-08-03T09:10:12.146Z,98218.72
2022-08-03T09:12:42.995Z,98212.00
2022-08-03T09:15:28.276Z,98211.09
2022-08-03T09:17:58.162Z,98207.09
2022-08-03T09:20:27.012Z,98203.31
2022-08-03T09:23:17.850Z,98205.22
2022-08-03T09:25:59.865Z,98199.88
2022-08-03T09:28:56.540Z,98207.13
2022-08-03T09:31:29.083Z,98201.75
2022-08-03T09:33:59.885Z,98205.28
2022-08-03T09:36:39.795Z,98199.75
2022-08-03T09:39:11.379Z,98195.16
2022-08-03T09:41:40.296Z,98196.16
2022-08-03T09:44:07.615Z,98198.47
2022-08-03T09:46:56.678Z,98197.66
2022-08-03T09:49:23.883Z,98196.38
2022-08-03T09:52:32.258Z,98195.06
2022-08-03T09:54:37.376Z,98195.56
2022-08-03T09:57:04.618Z,98198.84
2022-08-03T09:59:33.261Z,98190.97
2022-08-03T10:02:00.720Z,98191.31
2022-08-03T10:04:28.118Z,98192.66
2022-08-03T10:07:11.347Z,98194.91
2022-08-03T10:09:38.233Z,98193.75
2022-08-03T10:12:09.799Z,98193.94
2022-08-03T10:14:39.314Z,98191.75
2022-08-03T10:17:06.216Z,98188.19
2022-08-03T10:19:33.501Z,98182.59
2022-08-03T10:22:07.521Z,98187.69
2022-08-03T10:24:36.413Z,98194.59
2022-08-03T10:27:08.335Z,98189.50
2022-08-03T10:29:39.000Z,98196.19
2022-08-03T10:32:14.695Z,98187.97
2022-08-03T10:34:44.605Z,98183.59
2022-08-03T10:40:48.520Z,98187.13
2022-08-03T10:43:59.350Z,98190.34
2022-08-03T10:46:27.253Z,98189.34
2022-08-03T10:48:54.538Z,98197.09
2022-08-03T10:51:23.193Z,98188.41
2022-08-03T10:53:54.777Z,98189.59
2022-08-03T10:56:53.282Z,98186.78
2022-08-03T10:59:46.873Z,98183.53
2022-08-03T11:02:15.061Z,98190.25
2022-08-03T11:04:42.941Z,98184.34
2022-08-03T11:07:15.926Z,98193.63
2022-08-03T11:09:44.902Z,98184.00
2022-08-03T11:12:31.208Z,98184.41
2022-08-03T11:15:02.617Z,98184.88
2022-08-03T11:17:29.188Z,98176.72
2022-08-03T11:19:57.034Z,98183.03
2022-08-03T11:22:25.247Z,98178.03
2022-08-03T11:24:54.188Z,98178.81
2022-08-03T11:27:27.946Z,98178.03
2022-08-03T11:30:14.828Z,98173.50
2022-08-03T11:32:46.565Z,98176.69
2022-08-03T11:35:24.611Z,98176.31
2022-08-03T11:38:03.545Z,98173.69
2022-08-03T11:40:40.758Z,98172.78
2022-08-03T11:43:31.206Z,98176.50
2022-08-03T11:46:28.546Z,98177.97
2022-08-03T11:49:09.472Z,98174.00
2022-08-03T11:51:38.022Z,98172.50
2022-08-03T11:54:06.639Z,98168.47
2022-08-03T11:56:47.737Z,98166.84
2022-08-03T11:59:20.395Z,98170.78
2022-08-03T12:01:48.111Z,98165.47
2022-08-03T12:04:16.498Z,98166.25
2022-08-03T12:06:58.710Z,98161.53
2022-08-03T12:09:25.288Z,98165.38
2022-08-03T12:11:59.873Z,98163.00
2022-08-03T12:14:50.374Z,98164.19
2022-08-03T12:17:14.857Z,98168.47
2022-08-03T12:19:44.660Z,98158.81
2022-08-03T12:22:11.318Z,98154.81
2022-08-03T12:24:43.184Z,98155.56
2022-08-03T12:27:10.156Z,98151.97
2022-08-03T12:29:37.168Z,98150.66
2022-08-03T12:32:04.019Z,98149.31
2022-08-03T12:34:47.810Z,98153.53
2022-08-03T12:37:22.021Z,98145.56
2022-08-03T12:41:44.198Z,98147.19
2022-08-03T12:44:10.791Z,98142.47
2022-08-03T12:46:47.571Z,98146.47
2022-08-03T12:49:17.211Z,98148.63
2022-08-03T12:51:43.849Z,98140.31
2022-08-03T12:54:16.824Z,98141.94
2022-08-03T12:57:04.056Z,98134.41
2022-08-03T12:59:35.386Z,98137.22
2022-08-03T13:02:16.242Z,98136.34
2022-08-03T13:04:46.001Z,98139.09
2022-08-03T13:07:14.500Z,98133.88
2022-08-03T13:09:55.775Z,98133.88
2022-08-03T13:12:30.015Z,98132.91
2022-08-03T13:14:59.073Z,98136.97
2022-08-03T13:17:26.738Z,98130.66
2022-08-03T13:19:54.191Z,98123.34
2022-08-03T13:22:21.977Z,98121.56
2022-08-03T13:24:50.588Z,98125.50
2022-08-03T13:28:02.516Z,98134.44
2022-08-03T13:30:05.065Z,98124.97
2022-08-03T13:32:32.678Z,98127.91
2022-08-03T13:34:59.522Z,98120.66
2022-08-03T13:37:26.978Z,98120.03
2022-08-03T13:39:59.590Z,98118.59
2022-08-03T13:42:31.207Z,98118.81
2022-08-03T13:44:58.990Z,98123.56
2022-08-03T13:47:25.903Z,98120.34
2022-08-03T13:49:59.678Z,98120.34
2022-08-03T13:52:32.770Z,98121.94
2022-08-03T13:55:00.276Z,98115.13
2022-08-03T13:58:03.613Z,98111.56
2022-08-03T14:00:26.142Z,98120.81
2022-08-03T14:02:55.332Z,98115.28
2022-08-03T14:05:25.161Z,98111.84
2022-08-03T14:07:51.776Z,98107.78
2022-08-03T14:10:23.423Z,98110.53
2022-08-03T14:12:50.098Z,98109.56
2022-08-03T14:15:16.655Z,98103.34
2022-08-03T14:17:49.934Z,98108.22
2022-08-03T14:20:36.684Z,98105.25
2022-08-03T14:23:03.744Z,98108.22
2022-08-03T14:25:31.369Z,98102.69
2022-08-03T14:28:16.950Z,98103.50
2022-08-03T14:30:43.536Z,98097.97
2022-08-03T14:33:10.133Z,98100.75
2022-08-03T14:35:36.838Z,98094.53
2022-08-03T14:38:03.515Z,98099.41
2022-08-03T14:42:38.172Z,98090.44
2022-08-03T14:45:09.151Z,98089.97
2022-08-03T14:50:31.187Z,98092.81
2022-08-03T14:50:31.464Z,98094.41
2022-08-03T14:53:05.961Z,98088.59
2022-08-03T14:55:38.721Z,98088.59
2022-08-03T14:58:21.183Z,98089.91
2022-08-03T15:00:50.006Z,98091.66
2022-08-03T15:03:17.618Z,98084.53
2022-08-03T15:05:44.768Z,98087.00
2022-08-03T15:08:11.937Z,98084.88
2022-08-03T15:10:44.015Z,98087.31
2022-08-03T15:13:12.358Z,98082.13
2022-08-03T15:15:39.600Z,98086.03
2022-08-03T15:18:06.237Z,98087.97
2022-08-03T15:20:43.983Z,98082.13
2022-08-03T15:23:11.992Z,98080.97
2022-08-03T15:26:06.548Z,98083.88
2022-08-03T15:28:25.352Z,98071.34
2022-08-03T15:30:53.921Z,98077.69
2022-08-03T15:33:20.730Z,98067.13
2022-08-03T15:35:49.902Z,98070.38
2022-08-03T15:38:16.638Z,98075.22
2022-08-03T15:40:43.305Z,98072.31
2022-08-03T15:43:10.060Z,98063.56
2022-08-03T15:45:37.189Z,98061.78
2022-08-03T15:48:05.800Z,98063.41
2022-08-03T15:50:32.509Z,98060.50
2022-08-03T15:52:59.073Z,98064.09
2022-08-03T15:55:25.864Z,98067.50
2022-08-03T15:59:11.279Z,98059.06
2022-08-03T16:00:39.819Z,98058.44
2022-08-03T16:03:06.468Z,98059.78
2022-08-03T16:05:33.311Z,98059.78
2022-08-03T16:08:03.717Z,98051.50
2022-08-03T16:10:31.893Z,98052.78
2022-08-03T16:13:01.413Z,98064.63
2022-08-03T16:15:28.095Z,98049.66
2022-08-03T16:17:54.898Z,98055.69
2022-08-03T16:20:29.257Z,98051.44
2022-08-03T16:23:11.072Z,98047.88
2022-08-03T16:25:40.321Z,98048.69
2022-08-03T16:28:13.466Z,98051.66
2022-08-03T16:30:41.925Z,98045.13
2022-08-03T16:33:08.755Z,98053.66
2022-08-03T16:35:35.336Z,98050.38
2022-08-03T16:38:05.375Z,98048.31
2022-08-03T16:43:38.238Z,98043.25
2022-08-03T16:46:04.923Z,98038.69
2022-08-03T16:48:31.532Z,98040.97
2022-08-03T16:50:58.203Z,98048.41
2022-08-03T16:53:33.732Z,98047.06
2022-08-03T16:56:11.763Z,98049.91
2022-08-03T16:58:42.209Z,98052.50
2022-08-03T17:01:24.330Z,98049.38
2022-08-03T17:04:03.083Z,98045.97
2022-08-03T17:06:35.632Z,98047.09
2022-08-03T17:09:08.488Z,98046.25
2022-08-03T17:11:36.318Z,98054.97
2022-08-03T17:14:07.724Z,98045.53
2022-08-03T17:16:36.362Z,98044.66
2022-08-03T17:19:06.999Z,98043.66
2022-08-03T17:21:39.081Z,98053.31
2022-08-03T17:24:26.342Z,98046.34
2022-08-03T17:26:54.867Z,98053.41
2022-08-03T17:29:25.251Z,98059.16
2022-08-03T17:31:56.657Z,98057.69
2022-08-03T17:34:26.582Z,98057.31
2022-08-03T17:37:17.741Z,98069.25
2022-08-03T17:39:59.918Z,98074.97
2022-08-03T17:42:30.183Z,98066.66
2022-08-03T17:45:15.533Z,98078.06
2022-08-03T17:47:43.767Z,98066.19
2022-08-03T17:50:24.067Z,98076.47
2022-08-03T17:53:15.372Z,98071.72
2022-08-03T17:56:44.866Z,98076.00
2022-08-03T18:02:57.026Z,98082.75
2022-08-03T18:05:25.492Z,98091.22
2022-08-03T18:08:19.713Z,98088.56
2022-08-03T18:11:09.692Z,98087.63
2022-08-03T18:13:59.389Z,98096.56
2022-08-03T18:16:37.606Z,98105.19
2022-08-03T18:19:09.749Z,98103.97
2022-08-03T18:22:03.132Z,98108.25
2022-08-03T18:24:30.448Z,98110.25
2022-08-03T18:26:59.068Z,98112.06
2022-08-03T18:29:27.640Z,98119.06
2022-08-03T18:32:03.854Z,98128.56
2022-08-03T18:34:53.348Z,98122.44
2022-08-03T18:37:25.221Z,98138.47
2022-08-03T18:39:57.864Z,98134.25
2022-08-03T18:44:53.472Z,98138.44
2022-08-03T18:48:05.242Z,98146.81
2022-08-03T18:50:46.474Z,98147.50
2022-08-03T18:54:03.597Z,98148.97
2022-08-03T18:56:19.325Z,98146.59
2022-08-03T18:59:10.697Z,98155.50
2022-08-03T19:01:58.605Z,98157.78
2022-08-03T19:04:37.410Z,98157.03
2022-08-03T19:07:09.553Z,98148.63
2022-08-03T19:09:48.323Z,98150.63
2022-08-03T19:12:27.293Z,98147.91
2022-08-03T19:15:03.834Z,98157.53
2022-08-03T19:17:36.281Z,98149.66
2022-08-03T19:20:06.549Z,98147.28
2022-08-03T19:22:33.986Z,98149.78
2022-08-03T19:25:04.718Z,98155.00
2022-08-03T19:27:32.446Z,98150.69
2022-08-03T19:30:04.465Z,98158.13
2022-08-03T19:32:35.138Z,98145.59
2022-08-03T19:35:04.829Z,98153.84
2022-08-03T19:37:40.881Z,98151.41
2022-08-03T19:40:10.302Z,98152.88
2022-08-03T19:42:41.608Z,98153.22
2022-08-03T19:45:14.218Z,98151.66
2022-08-03T20:26:42.089Z,98181.28
2022-08-03T20:29:12.088Z,98168.69
2022-08-03T20:31:38.876Z,98162.97
2022-08-03T20:34:07.308Z,98165.69
2022-08-03T20:36:35.814Z,98170.06
2022-08-03T20:39:09.126Z,98170.34
2022-08-03T20:41:37.291Z,98166.22
2022-08-03T20:56:03.589Z,98164.34
2022-08-03T20:58:50.424Z,98167.34
2022-08-03T21:01:17.838Z,98162.44
2022-08-03T21:03:55.475Z,98166.53
2022-08-03T21:06:27.648Z,98169.28
2022-08-03T21:09:04.031Z,98162.19
2022-08-03T21:11:44.030Z,98167.63
2022-08-03T21:13:04.918Z,98082.84
2022-08-03T21:14:22.642Z,98163.81
2022-08-03T21:16:51.891Z,98169.53
2022-08-03T21:19:21.176Z,98171.44
2022-08-03T21:21:49.265Z,98170.59
2022-08-03T21:24:16.549Z,98171.13
2022-08-03T21:26:47.557Z,98164.03
2022-08-03T21:29:17.007Z,98168.94
2022-08-03T21:31:44.291Z,98172.72
2022-08-03T21:34:11.062Z,98164.28
2022-08-03T21:36:38.105Z,98165.66
2022-08-03T21:39:08.160Z,98161.56
2022-08-03T21:41:37.190Z,98163.75
2022-08-03T21:44:05.324Z,98166.44
2022-08-03T21:46:38.020Z,98169.97
2022-08-03T21:50:04.247Z,98162.88
2022-08-03T21:51:59.159Z,98166.66
2022-08-03T21:54:33.665Z,98166.94
2022-08-03T21:57:04.770Z,98176.41
2022-08-03T21:59:37.210Z,98173.69
2022-08-03T22:02:04.462Z,98173.91
2022-08-03T22:04:50.569Z,98177.69
2022-08-03T22:07:23.640Z,98174.16
2022-08-03T22:09:52.276Z,98178.78
2022-08-03T22:12:26.746Z,98172.78
2022-08-03T22:15:00.801Z,98168.38
2022-08-03T22:17:55.571Z,98176.00
2022-08-03T22:20:16.343Z,98167.81
2022-08-03T22:22:55.331Z,98173.81
2022-08-03T22:25:29.330Z,98181.50
2022-08-03T22:27:57.545Z,98174.19
2022-08-03T22:30:24.471Z,98176.16
2022-08-03T22:32:54.106Z,98178.94
2022-08-03T22:35:24.052Z,98179.53
2022-08-03T22:37:54.089Z,98187.16
2022-08-03T22:40:21.345Z,98181.44
2022-08-03T22:42:52.218Z,98178.66
2022-08-03T22:46:38.305Z,98185.41
2022-08-03T22:49:05.247Z,98179.44
2022-08-03T22:51:33.997Z,98174.72
2022-08-03T22:54:01.618Z,98170.06
2022-08-03T22:56:32.110Z,98178.75
2022-08-03T22:58:59.766Z,98169.44
2022-08-03T23:01:28.235Z,98164.53
2022-08-03T23:04:02.476Z,98172.94
2022-08-03T23:06:35.773Z,98168.31
2022-08-03T23:09:11.524Z,98162.25
2022-08-03T23:11:43.008Z,98163.84
2022-08-03T23:14:18.959Z,98168.72
2022-08-03T23:16:47.467Z,98166.50
2022-08-03T23:19:17.256Z,98166.13
2022-08-03T23:22:03.988Z,98172.28
2022-08-03T23:24:36.329Z,98163.25
2022-08-03T23:27:04.917Z,98162.38
2022-08-03T23:29:34.351Z,98166.69
2022-08-03T23:32:02.204Z,98159.28
2022-08-03T23:34:50.152Z,98161.16
2022-08-03T23:37:18.156Z,98167.03
2022-08-03T23:39:47.565Z,98180.09
2022-08-03T23:42:19.037Z,98175.16
2022-08-03T23:44:46.801Z,98171.53
2022-08-03T23:47:13.900Z,98171.63
2022-08-03T23:49:40.520Z,98167.56
2022-08-03T23:52:07.405Z,98178.00
2022-08-03T23:54:52.668Z,98170.22
2022-08-03T23:57:28.369Z,98165.69
